createdAt,value
2023-05-03T00:02:11.104Z,99.90
2023-05-03T00:05:53.407Z,99.90
2023-05-03T00:09:35.796Z,99.90
2023-05-03T00:13:17.700Z,99.90
2023-05-03T00:16:59.744Z,99.90
2023-05-03T00:20:41.736Z,99.90
2023-05-03T00:24:23.735Z,99.90
2023-05-03T00:28:05.788Z,99.90
2023-05-03T00:31:47.684Z,99.90
2023-05-03T00:35:29.559Z,99.90
2023-05-03T00:39:11.635Z,99.90
2023-05-03T00:42:53.520Z,99.90
2023-05-03T00:46:35.909Z,99.90
2023-05-03T00:50:18.121Z,99.90
2023-05-03T00:54:00.140Z,99.90
2023-05-03T00:57:42.078Z,99.90
2023-05-03T01:01:24.239Z,99.90
2023-05-03T01:05:07.475Z,99.90
2023-05-03T01:09:03.046Z,99.90
2023-05-03T01:12:51.053Z,99.90
2023-05-03T01:16:44.598Z,99.90
2023-05-03T01:20:31.043Z,99.90
2023-05-03T01:24:22.094Z,99.90
2023-05-03T01:28:04.069Z,99.90
2023-05-03T01:31:49.934Z,99.90
2023-05-03T01:35:49.971Z,99.90
2023-05-03T01:39:42.417Z,99.90
2023-05-03T01:43:25.072Z,99.90
2023-05-03T01:47:08.838Z,99.90
2023-05-03T01:50:50.802Z,99.90
2023-05-03T01:54:32.944Z,99.90
2023-05-03T01:58:14.874Z,99.90
2023-05-03T02:01:56.903Z,99.90
2023-05-03T02:05:38.873Z,99.90
2023-05-03T02:09:20.892Z,99.90
2023-05-03T02:13:03.167Z,99.90
2023-05-03T02:16:45.187Z,99.90
2023-05-03T02:20:27.131Z,99.90
2023-05-03T02:24:09.050Z,99.90
2023-05-03T02:27:50.963Z,99.90
2023-05-03T02:31:33.039Z,99.90
2023-05-03T02:35:15.061Z,99.90
2023-05-03T02:38:56.946Z,99.90
2023-05-03T02:42:39.472Z,99.90
2023-05-03T02:46:21.456Z,99.90
2023-05-03T02:50:03.684Z,99.90
2023-05-03T02:53:45.789Z,99.90
2023-05-03T02:57:27.719Z,99.90
2023-05-03T03:01:10.835Z,99.90
2023-05-03T03:04:52.808Z,99.90
2023-05-03T03:08:35.937Z,99.90
2023-05-03T03:12:18.004Z,99.90
2023-05-03T03:15:59.913Z,99.90
2023-05-03T03:19:41.864Z,99.90
2023-05-03T03:23:23.773Z,99.90
2023-05-03T03:27:05.694Z,99.90
2023-05-03T03:30:47.930Z,99.90
2023-05-03T03:34:30.754Z,99.90
2023-05-03T03:38:15.039Z,99.90
2023-05-03T03:41:56.978Z,99.90
2023-05-03T03:45:38.873Z,99.90
2023-05-03T03:49:20.904Z,99.90
2023-05-03T03:53:03.088Z,99.90
2023-05-03T03:56:44.963Z,99.90
2023-05-03T04:00:26.943Z,99.90
2023-05-03T04:04:09.023Z,99.90
2023-05-03T04:07:50.999Z,99.90
2023-05-03T04:11:32.884Z,99.90
2023-05-03T04:15:14.889Z,99.90
2023-05-03T04:18:56.787Z,99.90
2023-05-03T04:22:40.046Z,99.90
2023-05-03T04:26:31.153Z,99.90
2023-05-03T04:30:15.122Z,99.90
2023-05-03T04:33:58.078Z,99.90
2023-05-03T04:37:42.047Z,99.90
2023-05-03T04:41:24.502Z,99.90
2023-05-03T04:45:06.916Z,99.90
2023-05-03T04:48:48.803Z,99.90
2023-05-03T04:52:30.829Z,99.90
2023-05-03T04:56:12.726Z,99.90
2023-05-03T04:59:55.159Z,99.90
2023-05-03T05:03:37.201Z,99.90
2023-05-03T05:07:19.181Z,99.90
2023-05-03T05:11:04.607Z,99.90
2023-05-03T05:14:46.774Z,99.90
2023-05-03T05:18:28.713Z,99.90
2023-05-03T05:22:10.746Z,99.90
2023-05-03T05:25:54.052Z,99.90
2023-05-03T05:29:36.071Z,99.90
2023-05-03T05:33:19.138Z,99.90
2023-05-03T05:37:01.352Z,99.90
2023-05-03T05:40:43.422Z,99.90
2023-05-03T05:44:25.307Z,99.90
2023-05-03T05:48:08.340Z,99.90
2023-05-03T05:51:50.351Z,99.90
2023-05-03T05:55:32.452Z,99.90
2023-05-03T05:59:14.672Z,99.90
2023-05-03T06:02:56.791Z,99.90
2023-05-03T06:06:39.087Z,99.90
2023-05-03T06:10:21.312Z,99.90
2023-05-03T06:14:04.015Z,99.90
2023-05-03T06:17:46.103Z,99.90
2023-05-03T06:21:28.393Z,99.90
2023-05-03T06:25:16.187Z,99.90
2023-05-03T06:29:00.956Z,99.90
2023-05-03T06:32:43.702Z,99.90
2023-05-03T06:36:25.816Z,99.90
2023-05-03T06:40:08.216Z,99.90
2023-05-03T06:43:50.098Z,99.90
2023-05-03T06:47:32.087Z,99.90
2023-05-03T06:51:14.708Z,99.90
2023-05-03T06:54:56.849Z,99.90
2023-05-03T06:58:38.740Z,99.90
2023-05-03T07:02:21.316Z,99.90
2023-05-03T07:06:04.027Z,99.90
2023-05-03T07:09:46.035Z,99.90
2023-05-03T07:13:27.934Z,99.90
2023-05-03T07:17:10.309Z,99.90
2023-05-03T07:20:52.212Z,99.90
2023-05-03T07:24:34.112Z,99.90
2023-05-03T07:28:17.239Z,99.90
2023-05-03T07:32:01.434Z,99.90
2023-05-03T07:35:45.627Z,99.90
2023-05-03T07:39:27.543Z,99.90
2023-05-03T07:43:12.546Z,99.90
2023-05-03T07:46:54.444Z,99.90
2023-05-03T07:50:36.351Z,99.00
2023-05-03T07:54:18.829Z,97.10
2023-05-03T07:58:01.178Z,97.80
2023-05-03T08:01:43.714Z,97.00
2023-05-03T08:05:25.757Z,95.40
2023-05-03T08:09:07.943Z,95.90
2023-05-03T08:12:50.025Z,95.20
2023-05-03T08:16:31.988Z,94.50
2023-05-03T08:20:14.525Z,93.30
2023-05-03T08:23:56.601Z,94.20
2023-05-03T08:27:40.110Z,91.60
2023-05-03T08:31:22.323Z,91.60
2023-05-03T08:35:07.194Z,90.20
2023-05-03T08:38:50.601Z,92.90
2023-05-03T08:42:33.705Z,91.80
2023-05-03T08:46:15.706Z,91.90
2023-05-03T08:49:58.258Z,91.30
2023-05-03T08:53:40.523Z,90.70
2023-05-03T08:57:25.367Z,90.80
2023-05-03T09:01:08.726Z,90.80
2023-05-03T09:04:50.959Z,91.00
2023-05-03T09:08:43.087Z,90.40
2023-05-03T09:12:41.215Z,90.50
2023-05-03T09:16:27.456Z,90.60
2023-05-03T09:20:10.124Z,90.50
2023-05-03T09:23:52.531Z,89.10
2023-05-03T09:27:34.448Z,88.80
2023-05-03T09:31:16.649Z,87.30
2023-05-03T09:35:10.270Z,87.50
2023-05-03T09:38:52.754Z,86.10
2023-05-03T09:42:34.701Z,85.90
2023-05-03T09:46:16.752Z,88.80
2023-05-03T09:49:58.981Z,86.10
2023-05-03T09:53:41.891Z,85.50
2023-05-03T09:57:24.042Z,83.30
2023-05-03T10:01:06.574Z,84.00
2023-05-03T10:04:56.997Z,82.10
2023-05-03T10:08:42.897Z,81.00
2023-05-03T10:12:26.953Z,80.30
2023-05-03T10:16:17.873Z,74.90
2023-05-03T10:20:32.422Z,73.30
2023-05-03T10:24:16.636Z,74.00
2023-05-03T10:28:06.071Z,68.90
2023-05-03T10:31:48.841Z,69.30
2023-05-03T10:35:31.422Z,67.20
2023-05-03T10:39:15.071Z,67.30
2023-05-03T10:42:57.008Z,65.70
2023-05-03T10:46:39.175Z,64.80
2023-05-03T10:50:25.779Z,63.70
2023-05-03T10:54:07.675Z,64.30
2023-05-03T10:57:50.412Z,62.80
2023-05-03T11:01:32.637Z,60.00
2023-05-03T11:05:17.302Z,60.20
2023-05-03T11:08:59.719Z,61.70
2023-05-03T11:12:41.604Z,60.70
2023-05-03T11:16:23.854Z,59.00
2023-05-03T11:20:10.469Z,59.80
2023-05-03T11:23:52.433Z,60.00
2023-05-03T11:27:34.385Z,59.70
2023-05-03T11:31:16.379Z,58.50
2023-05-03T11:34:59.281Z,58.60
2023-05-03T11:38:41.185Z,58.10
2023-05-03T11:42:25.064Z,56.80
2023-05-03T11:46:07.446Z,58.40
2023-05-03T11:49:57.241Z,59.10
2023-05-03T11:53:40.350Z,58.00
2023-05-03T11:57:22.317Z,58.30
2023-05-03T12:01:05.913Z,57.70
2023-05-03T12:04:48.435Z,55.70
2023-05-03T12:08:36.034Z,54.70
2023-05-03T12:12:24.626Z,54.80
2023-05-03T12:16:13.815Z,55.30
2023-05-03T12:20:42.685Z,54.70
2023-05-03T12:24:20.136Z,55.50
2023-05-03T12:31:49.638Z,53.80
2023-05-03T12:35:34.209Z,52.80
2023-05-03T12:39:16.897Z,51.20
2023-05-03T12:42:58.984Z,53.70
2023-05-03T12:46:44.795Z,53.70
2023-05-03T12:50:30.982Z,53.90
2023-05-03T12:54:18.367Z,53.50
2023-05-03T12:58:30.340Z,52.60
2023-05-03T13:03:10.008Z,52.70
2023-05-03T13:06:12.591Z,53.00
2023-05-03T13:13:41.965Z,53.40
2023-05-03T13:17:24.020Z,53.00
2023-05-03T13:21:07.984Z,52.70
2023-05-03T13:24:50.063Z,54.40
2023-05-03T13:28:32.002Z,54.80
2023-05-03T13:32:13.950Z,55.20
2023-05-03T13:35:56.084Z,55.00
2023-05-03T13:39:38.206Z,55.00
2023-05-03T13:43:20.112Z,57.00
2023-05-03T13:47:02.586Z,55.60
2023-05-03T13:50:45.145Z,55.70
2023-05-03T13:54:27.095Z,55.00
2023-05-03T13:58:09.039Z,54.70
2023-05-03T14:01:51.480Z,54.50
2023-05-03T14:05:33.492Z,55.10
2023-05-03T14:09:15.373Z,54.10
2023-05-03T14:12:58.047Z,53.30
2023-05-03T14:16:41.885Z,54.10
2023-05-03T14:20:24.237Z,53.20
2023-05-03T14:24:06.866Z,54.10
2023-05-03T14:27:48.862Z,54.10
2023-05-03T14:31:30.977Z,53.60
2023-05-03T14:35:13.138Z,54.60
2023-05-03T14:38:55.036Z,54.20
2023-05-03T14:42:36.999Z,54.30
2023-05-03T14:46:18.960Z,55.90
2023-05-03T14:50:01.335Z,55.80
2023-05-03T14:53:43.347Z,55.90
2023-05-03T14:57:25.387Z,57.10
2023-05-03T15:01:07.362Z,56.80
2023-05-03T15:04:49.256Z,57.00
2023-05-03T15:08:31.413Z,57.30
2023-05-03T15:12:14.197Z,56.90
2023-05-03T15:15:56.288Z,56.70
2023-05-03T15:19:38.242Z,57.70
2023-05-03T15:23:20.151Z,57.50
2023-05-03T15:27:05.017Z,58.00
2023-05-03T15:30:46.985Z,58.30
2023-05-03T15:35:25.529Z,59.70
2023-05-03T15:39:07.850Z,59.90
2023-05-03T15:42:49.771Z,61.10
2023-05-03T15:46:32.649Z,59.70
2023-05-03T15:50:14.732Z,59.40
2023-05-03T15:53:56.642Z,60.60
2023-05-03T15:57:38.884Z,61.30
2023-05-03T16:01:20.861Z,63.50
2023-05-03T16:05:02.881Z,62.70
2023-05-03T16:08:45.702Z,63.10
2023-05-03T16:12:28.121Z,64.10
2023-05-03T16:16:10.106Z,64.10
2023-05-03T16:19:52.080Z,63.80
2023-05-03T16:23:34.074Z,63.90
2023-05-03T16:27:16.071Z,65.90
2023-05-03T16:30:58.213Z,65.50
2023-05-03T16:34:40.207Z,66.20
2023-05-03T16:38:22.175Z,67.90
2023-05-03T16:42:04.270Z,68.40
2023-05-03T16:45:54.559Z,68.20
2023-05-03T16:49:37.063Z,68.60
2023-05-03T16:53:19.176Z,69.70
2023-05-03T16:57:02.266Z,70.90
2023-05-03T17:00:44.853Z,70.60
2023-05-03T17:04:27.695Z,71.70
2023-05-03T17:08:09.750Z,73.00
2023-05-03T17:11:51.641Z,73.50
2023-05-03T17:15:33.532Z,74.40
2023-05-03T17:19:16.124Z,74.90
2023-05-03T17:22:58.588Z,74.80
2023-05-03T17:26:40.564Z,74.20
2023-05-03T17:30:22.584Z,75.50
2023-05-03T17:34:04.710Z,76.00
2023-05-03T17:37:47.363Z,77.20
2023-05-03T17:41:30.247Z,76.80
2023-05-03T17:45:12.535Z,78.40
2023-05-03T17:48:55.384Z,78.90
2023-05-03T17:52:37.278Z,80.10
2023-05-03T17:56:19.511Z,80.70
2023-05-03T18:00:01.466Z,81.40
2023-05-03T18:03:43.751Z,81.90
2023-05-03T18:07:26.942Z,83.10
2023-05-03T18:11:09.323Z,83.80
2023-05-03T18:14:51.356Z,85.20
2023-05-03T18:18:33.669Z,86.60
2023-05-03T18:22:15.617Z,87.50
2023-05-03T18:25:57.552Z,87.30
2023-05-03T18:29:39.730Z,88.20
2023-05-03T18:33:21.794Z,90.00
2023-05-03T18:37:04.937Z,90.20
2023-05-03T18:40:48.184Z,90.80
2023-05-03T18:44:32.015Z,90.90
2023-05-03T18:48:14.055Z,91.30
2023-05-03T18:51:56.155Z,91.80
2023-05-03T18:55:38.155Z,91.90
2023-05-03T18:59:20.213Z,92.20
2023-05-03T19:03:02.235Z,92.40
2023-05-03T19:06:44.770Z,92.40
2023-05-03T19:10:26.708Z,92.70
2023-05-03T19:14:09.446Z,92.90
2023-05-03T19:17:51.378Z,93.30
2023-05-03T19:21:35.014Z,93.40
2023-05-03T19:25:17.038Z,93.40
2023-05-03T19:28:58.948Z,93.40
2023-05-03T19:32:40.874Z,93.40
2023-05-03T19:36:23.064Z,93.70
2023-05-03T19:40:06.134Z,93.90
2023-05-03T19:43:48.365Z,94.00
2023-05-03T19:47:30.296Z,93.90
2023-05-03T19:51:18.258Z,94.30
2023-05-03T19:55:00.166Z,94.30
2023-05-03T19:58:42.069Z,94.70
2023-05-03T20:02:25.155Z,94.80
2023-05-03T20:06:07.202Z,94.70
2023-05-03T20:09:49.401Z,94.60
2023-05-03T20:13:31.365Z,94.80
2023-05-03T20:17:13.472Z,94.30
2023-05-03T20:20:55.362Z,94.50
2023-05-03T20:24:37.779Z,94.60
2023-05-03T20:28:19.698Z,94.70
2023-05-03T20:32:01.876Z,94.60
2023-05-03T20:35:44.025Z,94.90
2023-05-03T20:39:26.292Z,94.40
2023-05-03T20:43:09.061Z,94.50
2023-05-03T20:46:50.955Z,94.80
2023-05-03T20:50:32.836Z,95.20
2023-05-03T20:54:14.735Z,95.70
2023-05-03T20:57:57.014Z,95.80
2023-05-03T21:01:40.763Z,96.00
2023-05-03T21:05:22.878Z,96.10
2023-05-03T21:09:05.114Z,96.30
2023-05-03T21:12:47.247Z,96.50
2023-05-03T21:16:29.222Z,96.90
2023-05-03T21:20:11.578Z,97.20
2023-05-03T21:23:53.492Z,97.50
2023-05-03T21:27:35.404Z,97.90
2023-05-03T21:31:17.339Z,98.30
2023-05-03T21:34:59.262Z,98.60
2023-05-03T21:38:41.265Z,99.20
2023-05-03T21:42:23.257Z,99.70
2023-05-03T21:46:09.007Z,99.90
2023-05-03T21:49:51.628Z,99.90
2023-05-03T21:53:35.430Z,99.90
2023-05-03T21:57:18.916Z,99.90
2023-05-03T22:01:01.643Z,99.90
2023-05-03T22:04:43.640Z,99.90
2023-05-03T22:08:25.520Z,99.90
2023-05-03T22:12:22.745Z,99.90
2023-05-03T22:16:07.988Z,99.90
2023-05-03T22:19:50.533Z,99.90
2023-05-03T22:23:32.415Z,99.90
2023-05-03T22:27:14.329Z,99.90
2023-05-03T22:30:56.590Z,99.90
2023-05-03T22:34:38.506Z,99.90
2023-05-03T22:38:20.761Z,99.90
2023-05-03T22:42:03.197Z,99.90
2023-05-03T22:45:45.227Z,99.90
2023-05-03T22:49:27.634Z,99.90
2023-05-03T22:53:09.553Z,99.90
2023-05-03T22:56:51.473Z,99.90
2023-05-03T23:00:33.535Z,99.90
2023-05-03T23:04:16.005Z,99.90
2023-05-03T23:07:58.136Z,99.90
2023-05-03T23:11:40.124Z,99.90
2023-05-03T23:15:22.147Z,99.90
2023-05-03T23:19:04.361Z,99.90
2023-05-03T23:22:46.302Z,99.90
2023-05-03T23:26:28.317Z,99.90
2023-05-03T23:30:11.237Z,99.90
2023-05-03T23:33:53.603Z,99.90
2023-05-03T23:37:35.621Z,99.90
2023-05-03T23:41:17.539Z,99.90
2023-05-03T23:44:59.568Z,99.90
2023-05-03T23:48:41.483Z,99.90
2023-05-03T23:52:23.396Z,99.90
2023-05-03T23:56:05.376Z,99.90
2023-05-03T23:59:47.259Z,99.90
